Time;durP1;ratioP1;P1;durP2;ratioP2;P2;SDS_P1;SDS_P2;PMS_P1;PMS_P2;Temp;Humidity;BMP_temperature;BMP_pressure;BME280_temperature;BME280_humidity;BME280_pressure;Samples;Min_cycle;Max_cycle;Signal;HPM_P1;HPM_P2
2021/01/20 00:00:35;;;;;;;4.38;2.90;;;2.70;99.90;;;;;;5006611;28;20038;-81
2021/01/20 00:03:02;;;;;;;6.07;2.58;;;2.60;99.90;;;;;;5005613;28;20026;-82
2021/01/20 00:05:28;;;;;;;6.90;2.35;;;2.50;99.90;;;;;;5006110;28;20041;-81
2021/01/20 00:07:54;;;;;;;4.53;2.75;;;2.60;99.90;;;;;;4995964;28;20380;-82
2021/01/20 00:10:20;;;;;;;7.25;2.92;;;2.50;99.90;;;;;;4995979;28;20038;-81
2021/01/20 00:12:48;;;;;;;11.05;5.30;;;2.40;99.90;;;;;;4995680;28;20503;-82
2021/01/20 00:15:21;;;;;;;9.15;3.80;;;2.50;99.90;;;;;;4995824;28;20042;-82
2021/01/20 00:17:47;;;;;;;9.27;3.60;;;2.60;99.90;;;;;;4996049;28;20030;-81
2021/01/20 00:20:14;;;;;;;9.52;4.20;;;2.70;99.90;;;;;;4995458;28;20468;-81
2021/01/20 00:22:42;;;;;;;11.10;4.82;;;2.70;99.90;;;;;;4995517;28;20041;-82
2021/01/20 00:25:09;;;;;;;7.55;3.50;;;2.60;99.90;;;;;;4994597;28;20030;-82
2021/01/20 00:27:35;;;;;;;8.30;4.00;;;2.50;99.90;;;;;;4995187;28;20030;-82
2021/01/20 00:30:07;;;;;;;9.43;3.63;;;2.40;99.90;;;;;;4993268;28;20041;-82
2021/01/20 00:32:33;;;;;;;4.05;2.38;;;2.40;99.90;;;;;;4976965;28;20050;-82
2021/01/20 00:35:00;;;;;;;4.85;2.88;;;2.40;99.90;;;;;;4994336;28;20041;-82
2021/01/20 00:37:26;;;;;;;8.15;2.90;;;2.40;99.90;;;;;;4994231;28;20476;-82
2021/01/20 00:39:53;;;;;;;4.60;2.95;;;2.40;99.90;;;;;;4994593;28;20038;-82
2021/01/20 00:42:19;;;;;;;12.23;5.28;;;2.60;99.90;;;;;;4995040;28;20030;-83
2021/01/20 00:44:45;;;;;;;9.90;4.82;;;2.70;99.90;;;;;;4977136;28;20047;-82
2021/01/20 00:47:11;;;;;;;5.75;2.38;;;2.70;99.90;;;;;;4995437;28;20038;-82
2021/01/20 00:49:37;;;;;;;5.35;2.25;;;2.80;99.90;;;;;;4993857;28;20042;-82
2021/01/20 00:52:04;;;;;;;6.57;2.00;;;2.90;99.90;;;;;;4995144;28;20034;-82
2021/01/20 00:54:30;;;;;;;4.90;1.90;;;3.00;99.90;;;;;;4985265;28;20396;-82
2021/01/20 00:56:56;;;;;;;4.95;2.28;;;2.90;99.90;;;;;;5008076;28;20403;-82
2021/01/20 00:59:23;;;;;;;4.25;1.95;;;3.00;99.90;;;;;;4984878;28;20058;-82
2021/01/20 01:01:49;;;;;;;6.55;2.58;;;3.00;99.90;;;;;;4993688;28;20049;-82
2021/01/20 01:04:27;;;;;;;4.82;2.47;;;3.00;99.90;;;;;;4977264;28;20039;-82
2021/01/20 01:06:53;;;;;;;6.85;3.83;;;3.00;99.90;;;;;;4993262;28;20038;-82
2021/01/20 01:09:20;;;;;;;4.90;2.53;;;3.00;99.90;;;;;;4996189;28;20045;-82
2021/01/20 01:11:46;;;;;;;4.18;2.45;;;3.00;99.90;;;;;;4993057;28;20504;-82
2021/01/20 01:14:13;;;;;;;6.53;2.33;;;3.00;99.90;;;;;;4992198;28;20046;-80
2021/01/20 01:16:52;;;;;;;3.90;1.98;;;3.00;99.90;;;;;;4993068;28;20042;-82
2021/01/20 01:19:37;;;;;;;7.30;2.95;;;3.00;99.90;;;;;;4977567;28;20055;-83
2021/01/20 01:22:03;;;;;;;4.95;2.67;;;3.10;99.90;;;;;;4977347;28;20161;-82
2021/01/20 01:24:33;;;;;;;5.07;2.65;;;3.10;99.90;;;;;;4993900;28;20385;-81
2021/01/20 01:27:00;;;;;;;3.30;2.05;;;3.10;99.90;;;;;;4977772;28;20530;-82
2021/01/20 01:29:26;;;;;;;3.72;1.90;;;3.20;99.90;;;;;;4978893;28;20061;-82
2021/01/20 01:31:57;;;;;;;;;;;3.20;99.90;;;;;;4977495;28;20049;-81
2021/01/20 01:34:24;;;;;;;4.63;2.20;;;3.20;99.90;;;;;;4996598;28;19917;-82
2021/01/20 01:36:52;;;;;;;4.65;2.20;;;3.20;99.90;;;;;;4963040;28;20054;-82
2021/01/20 01:39:41;;;;;;;4.63;2.55;;;3.10;99.90;;;;;;4995594;28;20123;-82
2021/01/20 01:42:11;;;;;;;4.13;2.33;;;3.10;99.90;;;;;;4962531;28;20057;-82
2021/01/20 01:44:38;;;;;;;5.85;2.20;;;3.10;99.90;;;;;;4977681;28;20043;-82
2021/01/20 01:47:06;;;;;;;5.68;2.53;;;3.10;99.90;;;;;;4977984;28;20036;-82
2021/01/20 01:49:41;;;;;;;4.20;2.13;;;3.20;99.90;;;;;;4981143;28;20057;-82
2021/01/20 01:52:10;;;;;;;3.75;2.08;;;3.20;99.90;;;;;;4976932;28;20042;-82
2021/01/20 01:54:38;;;;;;;4.43;2.30;;;3.30;99.90;;;;;;4995509;28;20042;-82
2021/01/20 01:57:12;;;;;;;3.97;1.80;;;3.40;99.90;;;;;;4976410;28;20348;-81
2021/01/20 01:59:44;;;;;;;3.42;1.85;;;3.40;99.90;;;;;;4977373;28;20400;-82
2021/01/20 02:02:25;;;;;;;5.05;2.03;;;3.40;99.90;;;;;;4996350;28;20039;-81
2021/01/20 02:04:51;;;;;;;4.68;2.10;;;3.50;99.90;;;;;;4994016;28;20026;-82
2021/01/20 02:07:18;;;;;;;6.18;2.45;;;3.40;99.90;;;;;;4994149;28;20030;-81
2021/01/20 02:09:44;;;;;;;4.78;2.40;;;3.40;99.90;;;;;;4992751;28;20046;-82
2021/01/20 02:12:44;;;;;;;4.53;2.08;;;3.40;99.90;;;;;;4992005;28;20190;-82
2021/01/20 02:15:34;;;;;;;3.60;1.88;;;3.40;99.90;;;;;;4976705;28;20038;-81
2021/01/20 02:18:17;;;;;;;3.78;1.98;;;3.40;99.90;;;;;;4961626;28;20043;-81
2021/01/20 02:21:43;;;;;;;3.30;1.85;;;3.50;99.90;;;;;;4976080;28;20050;-81
2021/01/20 02:24:40;;;;;;;4.30;2.20;;;3.50;99.90;;;;;;4995956;28;20693;-81
2021/01/20 02:27:40;;;;;;;3.17;2.00;;;3.60;99.90;;;;;;4995623;28;20467;-82
2021/01/20 02:30:10;;;;;;;4.40;2.80;;;3.60;99.90;;;;;;4996579;28;20042;-82
2021/01/20 02:32:53;;;;;;;4.25;2.00;;;3.70;99.90;;;;;;4992700;28;20038;-82
2021/01/20 02:35:35;;;;;;;4.25;2.03;;;3.60;99.90;;;;;;4985237;28;20070;-80
2021/01/20 02:38:02;;;;;;;4.50;2.10;;;3.70;99.90;;;;;;4996232;28;20042;-81
2021/01/20 02:40:39;;;;;;;4.25;1.95;;;3.60;99.90;;;;;;4992726;28;20480;-82
2021/01/20 02:43:26;;;;;;;3.63;1.85;;;3.50;99.90;;;;;;4991105;28;20043;-81
2021/01/20 02:46:11;;;;;;;3.70;1.70;;;3.40;99.90;;;;;;5001726;28;20038;-82
2021/01/20 02:48:39;;;;;;;3.42;1.73;;;3.40;99.90;;;;;;4978451;28;20046;-81
2021/01/20 02:51:06;;;;;;;6.53;2.67;;;3.30;99.90;;;;;;4993255;28;20042;-81
2021/01/20 02:53:54;;;;;;;3.22;1.77;;;3.30;99.90;;;;;;4978440;28;20495;-82
2021/01/20 02:56:59;;;;;;;4.45;2.00;;;3.30;99.90;;;;;;4963607;28;20392;-81
2021/01/20 02:59:37;;;;;;;3.35;1.65;;;3.30;99.90;;;;;;4994580;28;20049;-81
2021/01/20 03:02:23;;;;;;;4.05;1.95;;;3.30;99.90;;;;;;5000136;28;20042;-82
2021/01/20 03:04:54;;;;;;;4.93;2.17;;;3.30;99.90;;;;;;5000577;28;20065;-82
2021/01/20 03:07:21;;;;;;;5.35;2.28;;;3.20;99.90;;;;;;5000200;28;20057;-81
2021/01/20 03:09:48;;;;;;;4.05;1.90;;;3.20;99.90;;;;;;5000198;28;20083;-82
2021/01/20 03:12:14;;;;;;;4.78;2.10;;;3.30;99.90;;;;;;4999930;28;20034;-82
2021/01/20 03:14:42;;;;;;;4.75;2.15;;;3.20;99.90;;;;;;4999294;28;20046;-81
2021/01/20 03:17:09;;;;;;;3.45;1.85;;;3.30;99.90;;;;;;4981722;28;20384;-82
2021/01/20 03:19:35;;;;;;;4.28;2.08;;;3.30;99.90;;;;;;4998910;28;20388;-81
2021/01/20 03:22:01;;;;;;;4.93;2.70;;;3.30;99.90;;;;;;4997953;28;20396;-81
2021/01/20 03:24:27;;;;;;;5.07;2.03;;;3.30;99.90;;;;;;4995957;28;20486;-82
2021/01/20 03:26:54;;;;;;;6.45;2.58;;;3.30;99.90;;;;;;4996473;28;20046;-82
2021/01/20 03:29:20;;;;;;;4.88;2.35;;;3.30;99.90;;;;;;4996492;28;20046;-81
2021/01/20 03:31:46;;;;;;;3.65;1.83;;;3.40;99.90;;;;;;4995911;28;20045;-81
2021/01/20 03:34:12;;;;;;;3.47;1.98;;;3.40;99.90;;;;;;4996222;28;20380;-80
2021/01/20 03:36:38;;;;;;;4.93;2.53;;;3.30;99.90;;;;;;4996854;28;20042;-80
2021/01/20 03:39:04;;;;;;;4.22;2.03;;;3.30;99.90;;;;;;4996161;28;20042;-81
2021/01/20 03:41:30;;;;;;;160.13;62.50;;;3.30;99.90;;;;;;4996392;28;20369;-81
2021/01/20 03:43:56;;;;;;;46.90;18.52;;;3.20;99.90;;;;;;4996308;28;20042;-82
2021/01/20 03:46:23;;;;;;;87.00;33.08;;;3.20;99.90;;;;;;4996654;28;20042;-81
2021/01/20 03:48:49;;;;;;;78.78;31.38;;;3.20;99.90;;;;;;4996960;28;20054;-81
2021/01/20 03:51:15;;;;;;;91.63;36.28;;;3.30;99.90;;;;;;5008737;28;20080;-80
2021/01/20 03:53:41;;;;;;;298.92;116.32;;;3.20;99.90;;;;;;4981110;28;20041;-81
2021/01/20 03:56:07;;;;;;;184.18;76.00;;;3.20;99.90;;;;;;4996194;28;20041;-82
2021/01/20 03:58:33;;;;;;;80.05;33.08;;;3.20;99.90;;;;;;4997881;28;20038;-82
2021/01/20 04:00:59;;;;;;;180.38;73.22;;;3.10;99.90;;;;;;4979480;28;20061;-81
2021/01/20 04:03:26;;;;;;;29.10;14.40;;;3.10;99.90;;;;;;4995723;28;20045;-81
2021/01/20 04:06:09;;;;;;;129.77;55.90;;;3.00;99.90;;;;;;4978557;28;20487;-82
2021/01/20 04:08:36;;;;;;;141.27;63.33;;;3.00;99.90;;;;;;4980681;28;20034;-81
2021/01/20 04:11:02;;;;;;;25.23;12.80;;;2.90;99.90;;;;;;4998551;28;20041;-80
2021/01/20 04:13:28;;;;;;;48.00;21.10;;;3.00;99.90;;;;;;4998102;28;20030;-81
2021/01/20 04:15:54;;;;;;;191.05;76.38;;;3.00;99.90;;;;;;4997237;28;20494;-81
2021/01/20 04:18:20;;;;;;;78.25;32.15;;;3.00;99.90;;;;;;4981181;28;20030;-81
2021/01/20 04:20:47;;;;;;;19.85;9.45;;;3.00;99.90;;;;;;4993864;28;20054;-80
2021/01/20 04:23:13;;;;;;;65.65;27.02;;;3.00;99.90;;;;;;5009173;28;20033;-80
2021/01/20 04:25:39;;;;;;;22.95;10.20;;;2.90;99.90;;;;;;4996931;28;20058;-80
2021/01/20 04:28:05;;;;;;;54.92;24.50;;;3.00;99.90;;;;;;5010315;28;20053;-80
2021/01/20 04:30:32;;;;;;;111.78;52.25;;;2.90;99.90;;;;;;4995496;28;20034;-81
2021/01/20 04:32:58;;;;;;;40.08;18.70;;;3.00;99.90;;;;;;4994635;28;20464;-80
2021/01/20 04:35:24;;;;;;;56.05;23.30;;;3.00;99.90;;;;;;4995459;28;20042;-80
2021/01/20 04:37:50;;;;;;;28.85;12.80;;;3.10;99.90;;;;;;5001523;28;20034;-80
2021/01/20 04:40:16;;;;;;;12.57;6.30;;;3.10;99.90;;;;;;4997389;28;20042;-80
2021/01/20 04:42:44;;;;;;;23.20;10.98;;;3.10;99.90;;;;;;5000970;28;20042;-80
2021/01/20 04:45:11;;;;;;;77.72;38.38;;;3.10;99.90;;;;;;5000643;28;20034;-79
2021/01/20 04:47:39;;;;;;;16.17;8.23;;;3.20;99.90;;;;;;5000130;28;20026;-80
2021/01/20 04:50:06;;;;;;;20.63;10.00;;;3.20;99.90;;;;;;4984460;28;20034;-81
2021/01/20 04:52:33;;;;;;;19.83;10.10;;;3.20;99.90;;;;;;5016518;28;20038;-80
2021/01/20 04:55:01;;;;;;;13.52;7.25;;;3.10;99.90;;;;;;5000873;28;20057;-83
2021/01/20 04:57:28;;;;;;;8.25;4.22;;;3.20;99.90;;;;;;5009851;28;20038;-81
2021/01/20 04:59:55;;;;;;;48.13;23.30;;;3.20;99.90;;;;;;5008276;28;20030;-81
2021/01/20 05:02:22;;;;;;;7.50;4.88;;;3.30;99.90;;;;;;5004955;28;20038;-81
2021/01/20 05:04:51;;;;;;;8.10;4.30;;;3.40;99.90;;;;;;4984486;28;20046;-81
2021/01/20 05:07:19;;;;;;;57.13;26.98;;;3.30;99.90;;;;;;5000639;28;20471;-81
2021/01/20 05:09:45;;;;;;;8.55;4.35;;;3.30;99.90;;;;;;4998938;28;20383;-80
2021/01/20 05:12:41;;;;;;;5.85;3.30;;;3.30;99.90;;;;;;4993925;28;20034;-79
2021/01/20 05:15:10;;;;;;;20.35;10.15;;;3.40;99.90;;;;;;4994479;28;20039;-80
2021/01/20 05:17:37;;;;;;;33.53;17.35;;;3.40;99.90;;;;;;4994331;28;20030;-80
2021/01/20 05:20:04;;;;;;;32.25;14.55;;;3.50;99.90;;;;;;4993234;28;20038;-83
2021/01/20 05:22:30;;;;;;;28.65;13.27;;;3.40;99.90;;;;;;4993515;28;20037;-81
2021/01/20 05:24:58;;;;;;;17.23;8.23;;;3.50;99.90;;;;;;5003569;28;20027;-83
2021/01/20 05:27:32;;;;;;;32.92;15.27;;;3.50;99.90;;;;;;4998418;28;20034;-80
2021/01/20 05:30:05;;;;;;;15.88;8.82;;;3.60;99.90;;;;;;4992932;28;20030;-81
2021/01/20 05:32:33;;;;;;;9.07;4.97;;;3.60;99.90;;;;;;4975766;28;20484;-81
2021/01/20 05:35:02;;;;;;;5.70;2.55;;;3.70;99.90;;;;;;4993006;28;20061;-81
2021/01/20 05:37:28;;;;;;;18.38;10.02;;;3.70;99.90;;;;;;4977987;28;20033;-81
2021/01/20 05:40:12;;;;;;;7.40;3.65;;;3.80;99.90;;;;;;4993307;28;20042;-80
2021/01/20 05:42:53;;;;;;;19.35;10.75;;;3.80;99.90;;;;;;4997791;28;20392;-80
2021/01/20 05:45:23;;;;;;;4.80;2.85;;;3.80;99.90;;;;;;4995282;28;20034;-81
2021/01/20 05:48:07;;;;;;;3.75;1.75;;;3.90;99.90;;;;;;4993752;28;20041;-81
2021/01/20 05:50:36;;;;;;;12.70;7.50;;;3.80;99.90;;;;;;4992874;28;20531;-81
2021/01/20 05:53:10;;;;;;;8.85;5.50;;;3.90;99.90;;;;;;4992447;28;20372;-81
2021/01/20 05:55:38;;;;;;;6.63;2.78;;;3.90;99.90;;;;;;4992544;28;20050;-81
2021/01/20 05:58:06;;;;;;;7.50;5.28;;;4.00;99.90;;;;;;4992561;28;20038;-82
2021/01/20 06:00:32;;;;;;;5.30;2.72;;;3.90;99.90;;;;;;4993219;28;20030;-81
2021/01/20 06:03:01;;;;;;;11.27;6.50;;;3.80;99.90;;;;;;5001788;28;20034;-81
2021/01/20 06:05:28;;;;;;;9.07;5.50;;;3.90;99.90;;;;;;4999607;28;20038;-82
2021/01/20 06:07:54;;;;;;;12.73;6.38;;;3.90;99.90;;;;;;4993096;28;20031;-82
2021/01/20 06:10:21;;;;;;;3.22;2.45;;;3.80;99.90;;;;;;4992182;28;20403;-81
2021/01/20 06:12:49;;;;;;;9.63;4.22;;;3.90;99.90;;;;;;4992881;28;20376;-81
2021/01/20 06:15:15;;;;;;;20.42;12.68;;;3.90;99.90;;;;;;4992367;28;20118;-81
2021/01/20 06:17:43;;;;;;;7.85;2.90;;;4.00;99.90;;;;;;4975069;28;20042;-81
2021/01/20 06:20:11;;;;;;;5.88;2.75;;;4.00;99.90;;;;;;4992202;28;20026;-81
2021/01/20 06:22:47;;;;;;;4.20;2.30;;;4.00;99.90;;;;;;4992918;28;20034;-81
2021/01/20 06:25:17;;;;;;;4.82;2.70;;;4.00;99.90;;;;;;4974876;28;20038;-81
2021/01/20 06:27:52;;;;;;;3.92;1.77;;;4.00;99.90;;;;;;4992728;28;20046;-82
2021/01/20 06:30:20;;;;;;;4.70;2.67;;;4.10;99.90;;;;;;4992408;28;20042;-83
2021/01/20 06:32:47;;;;;;;3.80;1.73;;;4.10;99.90;;;;;;4982096;28;20065;-82
2021/01/20 06:35:17;;;;;;;5.15;1.60;;;4.10;99.90;;;;;;4997276;28;20041;-82
2021/01/20 06:37:46;;;;;;;4.13;1.45;;;4.20;99.90;;;;;;4996712;28;20030;-82
2021/01/20 06:40:19;;;;;;;2.30;1.30;;;4.20;99.90;;;;;;4996213;28;20372;-82
2021/01/20 06:42:50;;;;;;;3.00;1.38;;;4.20;99.90;;;;;;4996762;28;20093;-83
2021/01/20 06:45:24;;;;;;;3.45;1.42;;;4.30;99.70;;;;;;4978780;28;20035;-83
2021/01/20 06:48:11;;;;;;;6.35;2.65;;;4.30;99.50;;;;;;4996814;28;20037;-83
2021/01/20 06:51:00;;;;;;;2.60;1.58;;;4.40;99.00;;;;;;4995986;28;20511;-82
2021/01/20 06:53:27;;;;;;;2.92;1.50;;;4.50;98.20;;;;;;4986275;28;20038;-82
2021/01/20 06:55:53;;;;;;;2.75;1.40;;;4.60;97.70;;;;;;4996358;28;20046;-83
2021/01/20 06:58:20;;;;;;;2.15;1.48;;;4.60;97.10;;;;;;4977850;28;20035;-83
2021/01/20 07:00:59;;;;;;;4.22;1.80;;;4.70;96.80;;;;;;4996154;28;20035;-82
2021/01/20 07:03:44;;;;;;;5.50;1.30;;;4.60;97.00;;;;;;4995791;28;20041;-81
2021/01/20 07:06:30;;;;;;;3.67;1.45;;;4.60;96.60;;;;;;4995493;28;20041;-81
2021/01/20 07:08:57;;;;;;;4.30;1.70;;;4.60;96.40;;;;;;4995869;28;20045;-82
2021/01/20 07:11:24;;;;;;;3.58;1.48;;;4.60;96.30;;;;;;4993294;28;20046;-82
2021/01/20 07:13:50;;;;;;;5.72;1.70;;;4.70;96.10;;;;;;4999875;28;20045;-82
2021/01/20 07:16:17;;;;;;;4.47;1.58;;;4.70;96.00;;;;;;4998853;28;20365;-82
2021/01/20 07:18:50;;;;;;;3.35;1.45;;;4.70;95.50;;;;;;4995747;28;20026;-82
2021/01/20 07:21:16;;;;;;;3.72;1.73;;;4.70;95.60;;;;;;4995270;28;20034;-81
2021/01/20 07:23:43;;;;;;;4.07;2.17;;;4.60;95.70;;;;;;4994535;28;20042;-84
2021/01/20 07:26:10;;;;;;;3.05;1.83;;;4.70;95.70;;;;;;5002085;28;20034;-84
2021/01/20 07:28:39;;;;;;;5.88;1.90;;;4.60;95.80;;;;;;4985013;28;20038;-79
2021/01/20 07:31:11;;;;;;;3.72;1.70;;;4.60;95.80;;;;;;4994551;28;20050;-79
2021/01/20 07:33:39;;;;;;;3.63;1.80;;;4.60;95.80;;;;;;4995637;28;20407;-79
2021/01/20 07:36:13;;;;;;;6.15;1.90;;;4.70;95.60;;;;;;4994914;28;20034;-80
2021/01/20 07:38:40;;;;;;;5.22;1.77;;;4.70;95.70;;;;;;4995576;28;20399;-79
2021/01/20 07:41:16;;;;;;;7.10;1.98;;;4.70;95.50;;;;;;4994897;28;20034;-79
2021/01/20 07:43:42;;;;;;;5.57;2.20;;;4.70;94.90;;;;;;4995858;28;20042;-79
2021/01/20 07:46:17;;;;;;;6.57;2.55;;;4.80;94.80;;;;;;4993150;28;20042;-79
2021/01/20 07:48:44;;;;;;;4.78;2.45;;;4.80;94.50;;;;;;4994672;28;20423;-80
2021/01/20 07:51:22;;;;;;;4.97;1.88;;;4.80;94.70;;;;;;4994909;28;20053;-79
2021/01/20 07:54:02;;;;;;;5.72;2.70;;;4.90;94.10;;;;;;4994600;28;20038;-79
2021/01/20 07:56:29;;;;;;;4.47;2.30;;;4.90;94.20;;;;;;4995201;28;20038;-79
2021/01/20 07:59:16;;;;;;;4.38;2.00;;;4.90;94.10;;;;;;4995006;28;20496;-79
2021/01/20 08:01:42;;;;;;;4.25;2.58;;;4.90;94.00;;;;;;4995385;28;20045;-80
2021/01/20 08:04:26;;;;;;;4.75;2.38;;;4.90;93.80;;;;;;4993526;28;20054;-80
2021/01/20 08:06:53;;;;;;;5.18;2.20;;;4.90;93.70;;;;;;4995224;28;20041;-79
2021/01/20 08:09:21;;;;;;;4.85;2.20;;;4.90;93.70;;;;;;4994855;28;20211;-80
2021/01/20 08:11:48;;;;;;;6.35;3.28;;;5.00;93.50;;;;;;4994944;28;20395;-79
2021/01/20 08:14:15;;;;;;;4.55;2.22;;;5.00;93.40;;;;;;4994418;28;20034;-80
2021/01/20 08:16:42;;;;;;;4.45;2.55;;;5.00;93.50;;;;;;4994730;28;20026;-80
2021/01/20 08:19:08;;;;;;;5.20;1.80;;;5.00;93.30;;;;;;4994679;28;20030;-80
2021/01/20 08:21:34;;;;;;;4.32;2.40;;;5.00;92.70;;;;;;4994819;28;20059;-79
2021/01/20 08:24:05;;;;;;;5.45;2.22;;;5.10;92.80;;;;;;4994643;28;20037;-79
2021/01/20 08:26:33;;;;;;;5.43;2.53;;;5.10;92.50;;;;;;4995231;28;20034;-80
2021/01/20 08:29:08;;;;;;;39.45;20.23;;;5.10;92.40;;;;;;4994282;28;20464;-80
2021/01/20 08:31:41;;;;;;;14.23;7.03;;;5.10;92.30;;;;;;4994809;28;20061;-80
2021/01/20 08:34:16;;;;;;;86.78;39.38;;;5.10;92.30;;;;;;4994551;28;20038;-79
2021/01/20 08:37:04;;;;;;;23.42;11.73;;;5.20;92.40;;;;;;4994644;28;20491;-80
2021/01/20 08:39:32;;;;;;;44.30;18.20;;;5.20;92.30;;;;;;4994072;28;20115;-80
2021/01/20 08:42:29;;;;;;;86.95;34.40;;;5.30;91.80;;;;;;4994606;28;20476;-79
2021/01/20 08:45:16;;;;;;;15.88;6.80;;;5.30;91.70;;;;;;4994035;28;20460;-80
2021/01/20 08:47:44;;;;;;;24.30;10.70;;;5.40;91.30;;;;;;4994479;28;20034;-80
2021/01/20 08:50:13;;;;;;;15.20;7.03;;;5.30;91.60;;;;;;4996265;28;20034;-79
2021/01/20 08:52:51;;;;;;;51.67;23.63;;;5.30;91.40;;;;;;4994180;28;20047;-79
2021/01/20 08:55:28;;;;;;;76.93;38.90;;;5.40;91.40;;;;;;4994011;28;20042;-80
2021/01/20 08:58:33;;;;;;;18.30;9.10;;;5.40;90.90;;;;;;4993251;28;20030;-79
2021/01/20 09:01:02;;;;;;;51.65;24.95;;;5.50;90.80;;;;;;4933272;29;20058;-79
2021/01/20 09:03:52;;;;;;;19.65;10.13;;;5.60;90.50;;;;;;4917496;29;20502;-79
2021/01/20 09:06:19;;;;;;;19.95;8.88;;;5.60;90.30;;;;;;4929530;29;20383;-80
2021/01/20 09:08:45;;;;;;;7.50;3.20;;;5.70;89.70;;;;;;4933463;29;20048;-80
2021/01/20 09:11:11;;;;;;;4.72;2.45;;;5.80;88.60;;;;;;4932550;29;20036;-79
2021/01/20 09:13:37;;;;;;;4.32;2.25;;;5.80;88.00;;;;;;4933820;29;20035;-79
2021/01/20 09:16:04;;;;;;;13.27;6.63;;;5.80;88.20;;;;;;4933112;29;20280;-79
2021/01/20 09:18:30;;;;;;;16.42;7.05;;;5.80;89.10;;;;;;4936105;29;20039;-79
2021/01/20 09:20:57;;;;;;;8.80;5.25;;;5.80;88.20;;;;;;4932670;29;20040;-78
2021/01/20 09:23:23;;;;;;;11.10;3.65;;;5.90;88.10;;;;;;4932656;29;20043;-79
2021/01/20 09:25:50;;;;;;;5.57;2.90;;;5.90;88.40;;;;;;4933358;29;20052;-78
2021/01/20 09:28:16;;;;;;;5.45;3.63;;;6.00;87.30;;;;;;4931952;29;20564;-77
2021/01/20 09:30:43;;;;;;;6.55;3.20;;;5.90;88.50;;;;;;4936843;28;20051;-78
2021/01/20 09:33:10;;;;;;;4.65;2.33;;;6.00;88.30;;;;;;4992708;28;20046;-78
2021/01/20 09:35:36;;;;;;;5.35;2.45;;;6.00;87.20;;;;;;4993718;28;20050;-78
2021/01/20 09:38:04;;;;;;;4.95;2.33;;;6.10;86.50;;;;;;4993323;28;20041;-78
2021/01/20 09:40:31;;;;;;;4.22;1.98;;;6.10;86.80;;;;;;4993213;28;20035;-79
2021/01/20 09:42:58;;;;;;;4.40;2.00;;;6.20;86.60;;;;;;4976190;28;20041;-79
2021/01/20 09:45:27;;;;;;;3.05;1.67;;;6.20;86.40;;;;;;4992948;28;20042;-79
2021/01/20 09:47:55;;;;;;;4.03;2.08;;;6.20;86.40;;;;;;4993339;28;20041;-79
2021/01/20 09:50:22;;;;;;;4.70;1.85;;;6.20;86.00;;;;;;4993038;28;20053;-78
2021/01/20 09:52:49;;;;;;;4.80;1.80;;;6.30;85.60;;;;;;4993341;28;20041;-79
2021/01/20 09:55:15;;;;;;;4.13;2.22;;;6.40;85.30;;;;;;4992517;28;20038;-78
2021/01/20 09:57:42;;;;;;;6.07;2.33;;;6.40;85.30;;;;;;4993430;28;20034;-78
2021/01/20 10:00:09;;;;;;;3.63;2.13;;;6.40;84.40;;;;;;4996371;28;20045;-78
2021/01/20 10:02:38;;;;;;;3.95;2.15;;;6.40;84.50;;;;;;4997310;28;20042;-79
2021/01/20 10:05:06;;;;;;;3.10;1.60;;;6.50;84.00;;;;;;4996173;28;20039;-79
2021/01/20 10:07:33;;;;;;;4.70;1.80;;;6.50;83.60;;;;;;4996647;28;20034;-79
2021/01/20 10:09:59;;;;;;;5.93;1.88;;;6.60;82.70;;;;;;4992700;28;20384;-79
2021/01/20 10:12:26;;;;;;;3.33;1.63;;;6.70;83.00;;;;;;4992411;28;20463;-79
2021/01/20 10:14:52;;;;;;;3.90;1.80;;;6.80;82.90;;;;;;4992708;28;20033;-79
2021/01/20 10:17:18;;;;;;;4.32;1.77;;;6.90;81.80;;;;;;4992168;28;20365;-78
2021/01/20 10:19:45;;;;;;;266.13;148.07;;;6.90;82.40;;;;;;4992753;28;20061;-79
2021/01/20 10:22:12;;;;;;;26.67;16.65;;;7.00;81.40;;;;;;4992394;28;20403;-78
2021/01/20 10:24:38;;;;;;;28.45;14.35;;;7.10;80.40;;;;;;4992353;28;20400;-79
2021/01/20 10:27:04;;;;;;;26.55;13.90;;;7.10;81.10;;;;;;4974789;28;20043;-78
2021/01/20 10:29:30;;;;;;;20.63;11.30;;;7.10;80.40;;;;;;4991469;28;20053;-78
2021/01/20 10:31:57;;;;;;;14.32;6.28;;;7.20;79.70;;;;;;4991955;28;20408;-78
2021/01/20 10:34:23;;;;;;;15.10;8.30;;;7.20;79.90;;;;;;4991451;28;20247;-78
2021/01/20 10:36:49;;;;;;;14.25;6.38;;;7.20;79.50;;;;;;4991206;28;20034;-78
2021/01/20 10:39:16;;;;;;;10.32;4.78;;;7.20;79.10;;;;;;4991195;28;20034;-78
2021/01/20 10:41:42;;;;;;;8.13;4.47;;;7.20;79.10;;;;;;4992116;28;20050;-78
2021/01/20 10:44:08;;;;;;;4.85;2.65;;;7.30;78.70;;;;;;4992282;28;20034;-78
2021/01/20 10:46:35;;;;;;;5.82;2.72;;;7.30;77.70;;;;;;4992666;28;20046;-78
2021/01/20 10:49:02;;;;;;;10.38;6.47;;;7.40;77.00;;;;;;4991264;28;20411;-78
2021/01/20 10:51:33;;;;;;;9.30;4.07;;;7.40;77.40;;;;;;4991640;28;20046;-78
2021/01/20 10:54:04;;;;;;;20.00;9.20;;;7.50;76.70;;;;;;4992312;28;20030;-79
2021/01/20 10:56:31;;;;;;;6.77;3.40;;;7.60;76.90;;;;;;4992405;28;20034;-79
2021/01/20 10:58:57;;;;;;;6.13;2.15;;;7.70;76.40;;;;;;4992587;28;20281;-80
2021/01/20 11:01:23;;;;;;;5.65;2.13;;;7.70;74.70;;;;;;4991736;28;20228;-79
2021/01/20 11:03:50;;;;;;;5.57;3.85;;;7.80;75.70;;;;;;4991719;28;20069;-77
2021/01/20 11:06:16;;;;;;;5.38;3.10;;;7.90;74.60;;;;;;4993058;28;20047;-78
2021/01/20 11:08:43;;;;;;;5.18;2.38;;;7.90;75.00;;;;;;4992157;28;20026;-77
2021/01/20 11:11:11;;;;;;;5.05;1.85;;;8.00;74.90;;;;;;4991771;28;20472;-78
2021/01/20 11:13:39;;;;;;;8.82;5.68;;;8.00;74.50;;;;;;4990657;28;20046;-78
2021/01/20 11:16:05;;;;;;;7.75;3.83;;;8.00;74.50;;;;;;4991873;28;20092;-77
2021/01/20 11:18:33;;;;;;;13.85;7.88;;;8.10;74.50;;;;;;4991929;28;20027;-78
2021/01/20 11:21:00;;;;;;;9.25;7.40;;;8.10;73.70;;;;;;4979959;28;20038;-78
2021/01/20 11:23:27;;;;;;;4.55;3.30;;;8.20;73.50;;;;;;4995637;28;20042;-78
2021/01/20 11:25:54;;;;;;;6.30;2.50;;;8.20;73.30;;;;;;4996070;28;20468;-78
2021/01/20 11:28:21;;;;;;;4.15;1.83;;;8.30;73.10;;;;;;4995531;28;20030;-78
2021/01/20 11:30:50;;;;;;;7.20;2.00;;;8.40;72.50;;;;;;4995495;28;20464;-78
2021/01/20 11:33:16;;;;;;;4.97;1.42;;;8.40;72.60;;;;;;4995411;28;20041;-78
2021/01/20 11:35:42;;;;;;;3.03;1.48;;;8.30;72.10;;;;;;4995634;28;20057;-78
2021/01/20 11:38:09;;;;;;;4.95;2.17;;;8.30;72.70;;;;;;4995328;28;20046;-77
2021/01/20 11:40:35;;;;;;;4.82;1.80;;;8.40;72.20;;;;;;4995310;28;20030;-78
2021/01/20 11:43:02;;;;;;;3.70;1.35;;;8.40;72.60;;;;;;4995316;28;20053;-78
2021/01/20 11:45:30;;;;;;;2.83;1.27;;;8.40;73.40;;;;;;4994191;28;20484;-78
2021/01/20 11:47:57;;;;;;;3.22;2.22;;;8.50;73.00;;;;;;4995196;28;20094;-78
2021/01/20 11:50:24;;;;;;;2.97;1.02;;;8.50;72.60;;;;;;4994698;28;20395;-78
2021/01/20 11:52:52;;;;;;;5.68;1.55;;;8.50;72.30;;;;;;4994677;28;20042;-78
2021/01/20 11:55:20;;;;;;;3.45;0.98;;;8.60;70.60;;;;;;4994129;28;20046;-78
2021/01/20 11:57:46;;;;;;;3.25;1.88;;;8.70;70.90;;;;;;4995448;28;20030;-78
2021/01/20 12:00:14;;;;;;;3.80;1.25;;;8.80;71.40;;;;;;4994853;28;20027;-78
2021/01/20 12:02:41;;;;;;;6.07;2.78;;;8.90;70.00;;;;;;4994108;28;20436;-77
2021/01/20 12:05:10;;;;;;;2.92;1.30;;;9.00;69.40;;;;;;4994899;28;20384;-78
2021/01/20 12:07:36;;;;;;;3.90;1.45;;;9.10;69.20;;;;;;4995109;28;20041;-79
2021/01/20 12:10:05;;;;;;;3.00;1.17;;;9.10;68.20;;;;;;4995184;28;20460;-78
2021/01/20 12:12:31;;;;;;;4.93;1.50;;;9.20;68.70;;;;;;4995100;28;20041;-79
2021/01/20 12:14:57;;;;;;;3.88;2.20;;;9.20;68.70;;;;;;4994378;28;20047;-79
2021/01/20 12:17:24;;;;;;;5.63;1.70;;;9.30;68.50;;;;;;4994482;28;20037;-79
2021/01/20 12:19:50;;;;;;;1.83;1.00;;;9.30;67.60;;;;;;4993612;28;20495;-78
2021/01/20 12:22:17;;;;;;;5.97;2.00;;;9.30;67.80;;;;;;4994313;28;20490;-79
2021/01/20 12:24:43;;;;;;;3.95;1.17;;;9.20;68.00;;;;;;4995152;28;20034;-78
2021/01/20 12:27:10;;;;;;;1.92;1.00;;;9.20;67.50;;;;;;4994065;28;20424;-78
2021/01/20 12:29:39;;;;;;;3.70;1.13;;;9.30;67.60;;;;;;4994536;28;20054;-79
2021/01/20 12:32:06;;;;;;;8.95;5.57;;;9.30;67.60;;;;;;4992748;28;20073;-78
2021/01/20 12:34:32;;;;;;;38.58;17.08;;;9.20;67.60;;;;;;4994266;28;20034;-78
2021/01/20 12:36:58;;;;;;;37.47;19.70;;;9.20;68.10;;;;;;4994251;28;20026;-78
2021/01/20 12:39:25;;;;;;;15.55;8.80;;;9.30;68.30;;;;;;4993936;28;20222;-78
2021/01/20 12:41:51;;;;;;;6.38;2.00;;;9.30;69.30;;;;;;4994399;28;20042;-78
2021/01/20 12:44:18;;;;;;;8.30;2.83;;;9.20;69.20;;;;;;4993844;28;20503;-78
2021/01/20 12:46:44;;;;;;;2.70;1.30;;;9.20;69.80;;;;;;4994172;28;20391;-77
2021/01/20 12:49:10;;;;;;;2.85;1.40;;;9.20;69.50;;;;;;4993950;28;20034;-77
2021/01/20 12:51:36;;;;;;;4.22;1.58;;;9.30;69.20;;;;;;4993152;28;20393;-78
2021/01/20 12:54:03;;;;;;;3.15;1.25;;;9.30;68.50;;;;;;4993726;28;20046;-78
2021/01/20 12:56:29;;;;;;;6.63;1.80;;;9.40;68.80;;;;;;4993771;28;20030;-77
2021/01/20 12:58:56;;;;;;;8.13;3.78;;;9.40;68.20;;;;;;4994254;28;20392;-78
2021/01/20 13:01:23;;;;;;;11.80;4.05;;;9.50;68.40;;;;;;4993775;28;20416;-78
2021/01/20 13:03:49;;;;;;;4.22;1.48;;;9.60;68.00;;;;;;4993718;28;20061;-78
2021/01/20 13:06:16;;;;;;;5.25;1.88;;;9.60;68.70;;;;;;4993667;28;20038;-78